sensor_id;sensor_type;location;lat;lon;timestamp;pressure;altitude;pressure_sealevel;temperature;humidity
20009;BME280;10165;42.662;23.260;2023-02-20T00:00:33;94440.13;;;11.40;51.71
20009;BME280;10165;42.662;23.260;2023-02-20T00:03:01;94440.56;;;11.42;51.49
20009;BME280;10165;42.662;23.260;2023-02-20T00:05:28;94445.47;;;11.68;50.83
20009;BME280;10165;42.662;23.260;2023-02-20T00:07:54;94444.50;;;11.61;51.49
20009;BME280;10165;42.662;23.260;2023-02-20T00:10:21;94444.69;;;11.68;51.55
20009;BME280;10165;42.662;23.260;2023-02-20T00:12:50;94449.28;;;10.99;53.06
20009;BME280;10165;42.662;23.260;2023-02-20T00:15:18;94444.47;;;11.05;53.46
20009;BME280;10165;42.662;23.260;2023-02-20T00:17:45;94440.41;;;11.51;52.55
20009;BME280;10165;42.662;23.260;2023-02-20T00:20:14;94444.09;;;11.46;52.49
20009;BME280;10165;42.662;23.260;2023-02-20T00:22:41;94435.59;;;11.29;53.34
20009;BME280;10165;42.662;23.260;2023-02-20T00:25:08;94431.09;;;11.45;52.69
20009;BME280;10165;42.662;23.260;2023-02-20T00:27:34;94428.63;;;11.95;51.53
20009;BME280;10165;42.662;23.260;2023-02-20T00:30:02;94440.41;;;11.51;52.53
20009;BME280;10165;42.662;23.260;2023-02-20T00:32:30;94420.94;;;11.94;51.39
20009;BME280;10165;42.662;23.260;2023-02-20T00:34:56;94420.91;;;11.78;51.74
20009;BME280;10165;42.662;23.260;2023-02-20T00:37:23;94422.66;;;11.31;53.38
20009;BME280;10165;42.662;23.260;2023-02-20T00:39:50;94414.16;;;10.73;54.92
20009;BME280;10165;42.662;23.260;2023-02-20T00:42:16;94392.53;;;10.90;54.35
20009;BME280;10165;42.662;23.260;2023-02-20T00:44:43;94396.56;;;11.40;52.86
20009;BME280;10165;42.662;23.260;2023-02-20T00:47:09;94411.06;;;11.11;53.24
20009;BME280;10165;42.662;23.260;2023-02-20T00:49:36;94407.97;;;10.97;54.04
20009;BME280;10165;42.662;23.260;2023-02-20T00:52:03;94427.69;;;10.92;53.57
20009;BME280;10165;42.662;23.260;2023-02-20T00:54:29;94439.16;;;10.93;53.45
20009;BME280;10165;42.662;23.260;2023-02-20T00:56:56;94438.25;;;11.41;52.41
20009;BME280;10165;42.662;23.260;2023-02-20T00:59:23;94448.72;;;11.06;52.96
20009;BME280;10165;42.662;23.260;2023-02-20T01:01:49;94446.66;;;10.87;53.21
20009;BME280;10165;42.662;23.260;2023-02-20T01:04:16;94460.06;;;11.15;52.79
20009;BME280;10165;42.662;23.260;2023-02-20T01:06:43;94457.09;;;10.92;53.04
20009;BME280;10165;42.662;23.260;2023-02-20T01:09:10;94463.38;;;10.60;54.35
20009;BME280;10165;42.662;23.260;2023-02-20T01:11:37;94480.31;;;11.16;53.54
20009;BME280;10165;42.662;23.260;2023-02-20T01:14:03;94478.25;;;10.85;54.34
20009;BME280;10165;42.662;23.260;2023-02-20T01:16:31;94474.47;;;10.74;55.16
20009;BME280;10165;42.662;23.260;2023-02-20T01:18:58;94471.03;;;10.86;55.10
20009;BME280;10165;42.662;23.260;2023-02-20T01:21:24;94469.13;;;10.98;54.60
20009;BME280;10165;42.662;23.260;2023-02-20T01:23:51;94473.97;;;11.21;54.22
20009;BME280;10165;42.662;23.260;2023-02-20T01:26:18;94476.56;;;11.05;54.69
20009;BME280;10165;42.662;23.260;2023-02-20T01:28:45;94480.38;;;10.92;55.22
20009;BME280;10165;42.662;23.260;2023-02-20T01:31:14;94476.69;;;10.96;55.51
20009;BME280;10165;42.662;23.260;2023-02-20T01:33:42;94481.28;;;11.24;54.38
20009;BME280;10165;42.662;23.260;2023-02-20T01:36:10;94473.94;;;11.33;54.04
20009;BME280;10165;42.662;23.260;2023-02-20T01:38:41;94483.19;;;11.23;55.43
20009;BME280;10165;42.662;23.260;2023-02-20T01:41:09;94497.78;;;11.26;55.04
20009;BME280;10165;42.662;23.260;2023-02-20T01:43:36;94499.22;;;11.23;55.74
20009;BME280;10165;42.662;23.260;2023-02-20T01:49:10;94528.78;;;9.97;59.79
20009;BME280;10165;42.662;23.260;2023-02-20T01:51:44;94513.28;;;10.11;59.39
20009;BME280;10165;42.662;23.260;2023-02-20T01:54:15;94503.59;;;10.06;59.71
20009;BME280;10165;42.662;23.260;2023-02-20T01:56:45;94511.44;;;10.36;59.55
20009;BME280;10165;42.662;23.260;2023-02-20T01:59:13;94521.28;;;10.11;60.05
20009;BME280;10165;42.662;23.260;2023-02-20T02:01:41;94540.88;;;10.15;59.58
20009;BME280;10165;42.662;23.260;2023-02-20T02:04:09;94528.16;;;10.12;59.82
20009;BME280;10165;42.662;23.260;2023-02-20T02:06:40;94521.38;;;10.02;59.84
20009;BME280;10165;42.662;23.260;2023-02-20T02:09:31;94528.22;;;9.91;59.04
20009;BME280;10165;42.662;23.260;2023-02-20T02:11:59;94532.91;;;9.94;58.80
20009;BME280;10165;42.662;23.260;2023-02-20T02:14:28;94523.56;;;10.33;57.32
20009;BME280;10165;42.662;23.260;2023-02-20T02:17:35;94530.69;;;10.41;57.29
20009;BME280;10165;42.662;23.260;2023-02-20T02:28:05;94518.72;;;9.82;58.42
20009;BME280;10165;42.662;23.260;2023-02-20T02:36:37;94542.22;;;9.35;59.41
20009;BME280;10165;42.662;23.260;2023-02-20T02:39:24;94531.94;;;9.78;58.16
20009;BME280;10165;42.662;23.260;2023-02-20T02:42:02;94540.84;;;9.82;57.40
20009;BME280;10165;42.662;23.260;2023-02-20T02:44:43;94535.25;;;9.42;58.95
20009;BME280;10165;42.662;23.260;2023-02-20T02:47:22;94537.38;;;10.02;56.89
20009;BME280;10165;42.662;23.260;2023-02-20T02:49:58;94534.84;;;9.85;57.15
20009;BME280;10165;42.662;23.260;2023-02-20T02:52:28;94536.97;;;9.80;57.67
20009;BME280;10165;42.662;23.260;2023-02-20T02:55:12;94536.44;;;9.86;56.89
20009;BME280;10165;42.662;23.260;2023-02-20T02:57:40;94540.50;;;10.49;55.45
20009;BME280;10165;42.662;23.260;2023-02-20T03:00:08;94543.94;;;10.05;56.33
20009;BME280;10165;42.662;23.260;2023-02-20T03:02:43;94546.25;;;9.94;56.67
20009;BME280;10165;42.662;23.260;2023-02-20T03:05:15;94545.94;;;9.75;57.48
20009;BME280;10165;42.662;23.260;2023-02-20T03:07:44;94551.50;;;10.03;56.49
20009;BME280;10165;42.662;23.260;2023-02-20T03:10:17;94555.59;;;9.47;58.03
20009;BME280;10165;42.662;23.260;2023-02-20T03:13:02;94551.28;;;9.54;57.53
20009;BME280;10165;42.662;23.260;2023-02-20T03:15:38;94552.22;;;9.38;58.12
20009;BME280;10165;42.662;23.260;2023-02-20T03:18:53;94562.13;;;9.58;57.36
20009;BME280;10165;42.662;23.260;2023-02-20T03:21:17;94557.56;;;9.38;57.72
20009;BME280;10165;42.662;23.260;2023-02-20T03:23:53;94565.75;;;9.33;57.86
20009;BME280;10165;42.662;23.260;2023-02-20T03:26:27;94567.31;;;9.34;57.67
20009;BME280;10165;42.662;23.260;2023-02-20T03:31:44;94564.72;;;9.46;57.93
20009;BME280;10165;42.662;23.260;2023-02-20T03:34:21;94573.16;;;9.27;58.05
20009;BME280;10165;42.662;23.260;2023-02-20T03:37:14;94585.81;;;9.09;58.54
20009;BME280;10165;42.662;23.260;2023-02-20T03:40:04;94578.16;;;9.08;58.58
20009;BME280;10165;42.662;23.260;2023-02-20T03:42:53;94580.88;;;9.20;58.24
20009;BME280;10165;42.662;23.260;2023-02-20T03:45:41;94568.88;;;9.05;58.36
20009;BME280;10165;42.662;23.260;2023-02-20T03:48:46;94580.81;;;9.08;58.00
20009;BME280;10165;42.662;23.260;2023-02-20T03:51:14;94579.16;;;8.95;58.17
20009;BME280;10165;42.662;23.260;2023-02-20T03:53:42;94590.22;;;8.76;58.26
20009;BME280;10165;42.662;23.260;2023-02-20T03:56:13;94588.63;;;9.34;56.94
20009;BME280;10165;42.662;23.260;2023-02-20T03:58:47;94612.31;;;9.06;58.02
20009;BME280;10165;42.662;23.260;2023-02-20T04:01:16;94621.41;;;9.05;57.07
20009;BME280;10165;42.662;23.260;2023-02-20T04:03:47;94615.97;;;9.72;55.61
20009;BME280;10165;42.662;23.260;2023-02-20T04:06:16;94636.00;;;9.78;55.06
20009;BME280;10165;42.662;23.260;2023-02-20T04:08:49;94629.00;;;9.44;55.74
20009;BME280;10165;42.662;23.260;2023-02-20T04:11:38;94627.00;;;9.83;54.68
20009;BME280;10165;42.662;23.260;2023-02-20T04:14:06;94624.34;;;9.83;55.08
20009;BME280;10165;42.662;23.260;2023-02-20T04:16:47;94627.84;;;9.33;56.06
20009;BME280;10165;42.662;23.260;2023-02-20T04:19:15;94610.53;;;9.39;56.06
20009;BME280;10165;42.662;23.260;2023-02-20T04:21:48;94615.19;;;9.22;56.74
20009;BME280;10165;42.662;23.260;2023-02-20T04:24:22;94612.97;;;9.53;56.37
20009;BME280;10165;42.662;23.260;2023-02-20T04:26:51;94610.13;;;9.58;56.14
20009;BME280;10165;42.662;23.260;2023-02-20T04:29:18;94621.53;;;9.08;57.96
20009;BME280;10165;42.662;23.260;2023-02-20T04:31:46;94628.09;;;9.20;57.00
20009;BME280;10165;42.662;23.260;2023-02-20T04:34:12;94627.69;;;9.30;56.72
20009;BME280;10165;42.662;23.260;2023-02-20T04:36:39;94637.97;;;9.40;56.78
20009;BME280;10165;42.662;23.260;2023-02-20T04:39:06;94640.47;;;9.45;55.36
20009;BME280;10165;42.662;23.260;2023-02-20T04:41:32;94630.00;;;9.10;56.07
20009;BME280;10165;42.662;23.260;2023-02-20T04:43:59;94629.81;;;9.16;55.70
20009;BME280;10165;42.662;23.260;2023-02-20T04:46:44;94607.47;;;9.08;55.51
20009;BME280;10165;42.662;23.260;2023-02-20T04:49:11;94617.63;;;9.35;55.03
20009;BME280;10165;42.662;23.260;2023-02-20T04:51:37;94621.69;;;9.12;55.11
20009;BME280;10165;42.662;23.260;2023-02-20T04:54:04;94630.84;;;8.94;55.38
20009;BME280;10165;42.662;23.260;2023-02-20T04:56:31;94627.06;;;8.66;56.17
20009;BME280;10165;42.662;23.260;2023-02-20T04:58:57;94633.25;;;8.87;55.39
20009;BME280;10165;42.662;23.260;2023-02-20T05:01:24;94638.34;;;8.62;55.57
20009;BME280;10165;42.662;23.260;2023-02-20T05:03:50;94635.44;;;8.47;55.74
20009;BME280;10165;42.662;23.260;2023-02-20T05:06:17;94645.88;;;8.60;55.41
20009;BME280;10165;42.662;23.260;2023-02-20T05:08:44;94669.84;;;8.52;55.49
20009;BME280;10165;42.662;23.260;2023-02-20T05:11:10;94662.06;;;8.30;55.17
20009;BME280;10165;42.662;23.260;2023-02-20T05:13:37;94666.09;;;8.61;54.06
20009;BME280;10165;42.662;23.260;2023-02-20T05:16:04;94659.97;;;8.70;54.25
20009;BME280;10165;42.662;23.260;2023-02-20T05:18:31;94660.38;;;8.80;54.17
20009;BME280;10165;42.662;23.260;2023-02-20T05:20:58;94660.25;;;8.77;53.85
20009;BME280;10165;42.662;23.260;2023-02-20T05:23:45;94655.97;;;8.93;53.37
20009;BME280;10165;42.662;23.260;2023-02-20T05:26:17;94665.81;;;8.92;53.34
20009;BME280;10165;42.662;23.260;2023-02-20T05:28:44;94672.94;;;8.62;54.60
20009;BME280;10165;42.662;23.260;2023-02-20T05:31:11;94675.78;;;8.66;54.54
20009;BME280;10165;42.662;23.260;2023-02-20T05:33:41;94679.19;;;8.75;54.47
20009;BME280;10165;42.662;23.260;2023-02-20T05:36:08;94682.38;;;8.60;55.39
20009;BME280;10165;42.662;23.260;2023-02-20T05:38:35;94693.84;;;8.98;54.48
20009;BME280;10165;42.662;23.260;2023-02-20T05:41:02;94700.19;;;8.77;55.08
20009;BME280;10165;42.662;23.260;2023-02-20T05:43:28;94692.09;;;8.56;55.54
20009;BME280;10165;42.662;23.260;2023-02-20T05:45:55;94692.06;;;8.73;55.28
20009;BME280;10165;42.662;23.260;2023-02-20T05:48:21;94690.19;;;8.65;55.57
20009;BME280;10165;42.662;23.260;2023-02-20T05:50:48;94684.06;;;8.73;55.26
20009;BME280;10165;42.662;23.260;2023-02-20T05:53:16;94683.94;;;9.07;53.52
20009;BME280;10165;42.662;23.260;2023-02-20T05:55:42;94692.78;;;9.29;52.98
20009;BME280;10165;42.662;23.260;2023-02-20T05:58:09;94689.28;;;9.37;52.72
20009;BME280;10165;42.662;23.260;2023-02-20T06:00:36;94679.44;;;8.91;53.70
20009;BME280;10165;42.662;23.260;2023-02-20T06:03:05;94672.38;;;8.95;53.67
20009;BME280;10165;42.662;23.260;2023-02-20T06:05:34;94674.41;;;8.98;53.41
20009;BME280;10165;42.662;23.260;2023-02-20T06:08:02;94690.97;;;9.12;53.66
20009;BME280;10165;42.662;23.260;2023-02-20T06:10:29;94680.22;;;9.00;54.18
20009;BME280;10165;42.662;23.260;2023-02-20T06:12:56;94696.81;;;8.97;53.06
20009;BME280;10165;42.662;23.260;2023-02-20T06:15:22;94702.63;;;8.99;53.96
20009;BME280;10165;42.662;23.260;2023-02-20T06:17:49;94712.06;;;8.88;53.69
20009;BME280;10165;42.662;23.260;2023-02-20T06:20:16;94715.31;;;8.93;54.08
20009;BME280;10165;42.662;23.260;2023-02-20T06:22:43;94695.41;;;8.99;54.40
20009;BME280;10165;42.662;23.260;2023-02-20T06:25:09;94708.84;;;9.11;54.33
20009;BME280;10165;42.662;23.260;2023-02-20T06:27:38;94691.00;;;9.62;53.31
20009;BME280;10165;42.662;23.260;2023-02-20T06:30:05;94709.97;;;9.69;53.03
20009;BME280;10165;42.662;23.260;2023-02-20T06:32:32;94702.88;;;9.15;54.31
20009;BME280;10165;42.662;23.260;2023-02-20T06:34:58;94715.72;;;9.12;54.56
20009;BME280;10165;42.662;23.260;2023-02-20T06:37:25;94726.47;;;9.33;53.69
20009;BME280;10165;42.662;23.260;2023-02-20T06:39:51;94714.84;;;9.38;52.42
20009;BME280;10165;42.662;23.260;2023-02-20T06:42:18;94724.59;;;9.34;50.61
20009;BME280;10165;42.662;23.260;2023-02-20T06:44:45;94730.81;;;9.46;51.93
20009;BME280;10165;42.662;23.260;2023-02-20T06:47:11;94729.25;;;9.45;52.78
20009;BME280;10165;42.662;23.260;2023-02-20T06:49:38;94731.56;;;9.47;51.29
20009;BME280;10165;42.662;23.260;2023-02-20T06:52:05;94727.97;;;9.13;51.66
20009;BME280;10165;42.662;23.260;2023-02-20T06:54:32;94722.91;;;9.21;52.61
20009;BME280;10165;42.662;23.260;2023-02-20T06:57:00;94732.84;;;9.03;52.71
20009;BME280;10165;42.662;23.260;2023-02-20T06:59:27;94731.94;;;8.90;53.77
20009;BME280;10165;42.662;23.260;2023-02-20T07:01:54;94744.09;;;9.08;53.30
20009;BME280;10165;42.662;23.260;2023-02-20T07:04:23;94743.25;;;8.87;52.30
20009;BME280;10165;42.662;23.260;2023-02-20T07:06:53;94745.50;;;9.15;52.16
20009;BME280;10165;42.662;23.260;2023-02-20T07:09:19;94745.69;;;9.09;52.97
20009;BME280;10165;42.662;23.260;2023-02-20T07:11:46;94762.69;;;9.34;51.31
20009;BME280;10165;42.662;23.260;2023-02-20T07:14:15;94759.69;;;9.36;49.76
20009;BME280;10165;42.662;23.260;2023-02-20T07:16:42;94763.25;;;9.48;48.91
20009;BME280;10165;42.662;23.260;2023-02-20T07:19:09;94764.31;;;9.85;48.62
20009;BME280;10165;42.662;23.260;2023-02-20T07:21:35;94774.44;;;9.42;48.30
20009;BME280;10165;42.662;23.260;2023-02-20T07:24:02;94769.94;;;9.63;48.33
20009;BME280;10165;42.662;23.260;2023-02-20T07:26:29;94772.84;;;9.41;47.12
20009;BME280;10165;42.662;23.260;2023-02-20T07:28:57;94791.28;;;9.17;46.49
20009;BME280;10165;42.662;23.260;2023-02-20T07:31:24;94774.47;;;9.25;46.44
20009;BME280;10165;42.662;23.260;2023-02-20T07:33:51;94783.63;;;9.53;46.25
20009;BME280;10165;42.662;23.260;2023-02-20T07:36:18;94774.31;;;9.30;46.51
20009;BME280;10165;42.662;23.260;2023-02-20T07:38:55;94779.66;;;9.30;45.42
20009;BME280;10165;42.662;23.260;2023-02-20T07:41:29;94767.34;;;9.46;46.03
20009;BME280;10165;42.662;23.260;2023-02-20T07:44:03;94755.75;;;9.42;45.32
20009;BME280;10165;42.662;23.260;2023-02-20T07:46:30;94776.50;;;9.95;44.72
20009;BME280;10165;42.662;23.260;2023-02-20T07:49:01;94773.19;;;9.98;43.39
20009;BME280;10165;42.662;23.260;2023-02-20T07:51:28;94786.81;;;9.76;43.52
20009;BME280;10165;42.662;23.260;2023-02-20T07:53:55;94787.94;;;9.28;44.34
20009;BME280;10165;42.662;23.260;2023-02-20T07:56:22;94795.28;;;9.40;43.88
20009;BME280;10165;42.662;23.260;2023-02-20T07:58:49;94790.91;;;9.73;43.66
20009;BME280;10165;42.662;23.260;2023-02-20T08:01:16;94787.75;;;9.42;43.87
20009;BME280;10165;42.662;23.260;2023-02-20T08:03:43;94804.88;;;9.70;43.19
20009;BME280;10165;42.662;23.260;2023-02-20T08:06:10;94809.38;;;9.49;44.08
20009;BME280;10165;42.662;23.260;2023-02-20T08:08:37;94790.53;;;9.54;43.73
20009;BME280;10165;42.662;23.260;2023-02-20T08:11:04;94803.72;;;9.88;42.63
20009;BME280;10165;42.662;23.260;2023-02-20T08:13:36;94799.97;;;9.81;42.95
20009;BME280;10165;42.662;23.260;2023-02-20T08:16:03;94794.13;;;9.58;42.99
20009;BME280;10165;42.662;23.260;2023-02-20T08:18:30;94811.50;;;9.64;43.43
20009;BME280;10165;42.662;23.260;2023-02-20T08:20:56;94817.59;;;9.73;43.37
20009;BME280;10165;42.662;23.260;2023-02-20T08:23:23;94822.00;;;9.69;43.62
20009;BME280;10165;42.662;23.260;2023-02-20T08:25:51;94804.25;;;9.73;43.29
20009;BME280;10165;42.662;23.260;2023-02-20T08:28:18;94819.66;;;9.97;43.16
20009;BME280;10165;42.662;23.260;2023-02-20T08:30:45;94814.63;;;9.66;43.55
20009;BME280;10165;42.662;23.260;2023-02-20T08:33:12;94821.09;;;9.56;44.06
20009;BME280;10165;42.662;23.260;2023-02-20T08:35:39;94803.53;;;10.14;43.65
20009;BME280;10165;42.662;23.260;2023-02-20T08:38:21;94818.91;;;10.26;42.49
20009;BME280;10165;42.662;23.260;2023-02-20T08:40:48;94809.81;;;9.89;43.16
20009;BME280;10165;42.662;23.260;2023-02-20T08:43:14;94806.28;;;9.76;42.56
20009;BME280;10165;42.662;23.260;2023-02-20T08:45:41;94812.16;;;9.61;43.74
20009;BME280;10165;42.662;23.260;2023-02-20T08:48:08;94801.78;;;9.89;42.68
20009;BME280;10165;42.662;23.260;2023-02-20T08:50:34;94806.00;;;9.98;41.52
20009;BME280;10165;42.662;23.260;2023-02-20T08:53:01;94813.28;;;9.51;42.63
20009;BME280;10165;42.662;23.260;2023-02-20T08:55:28;94808.50;;;9.28;43.04
20009;BME280;10165;42.662;23.260;2023-02-20T08:57:54;94792.94;;;9.76;42.84
20009;BME280;10165;42.662;23.260;2023-02-20T09:00:21;94795.84;;;10.21;41.46
20009;BME280;10165;42.662;23.260;2023-02-20T09:02:48;94809.38;;;9.49;42.54
20009;BME280;10165;42.662;23.260;2023-02-20T09:05:16;94799.41;;;9.67;42.83
20009;BME280;10165;42.662;23.260;2023-02-20T09:07:42;94807.63;;;10.20;41.87
20009;BME280;10165;42.662;23.260;2023-02-20T09:10:10;94781.19;;;9.98;42.33
20009;BME280;10165;42.662;23.260;2023-02-20T09:12:37;94795.91;;;9.75;42.77
20009;BME280;10165;42.662;23.260;2023-02-20T09:15:08;94801.78;;;9.89;42.27
20009;BME280;10165;42.662;23.260;2023-02-20T09:17:36;94795.53;;;10.14;42.62
20009;BME280;10165;42.662;23.260;2023-02-20T09:20:04;94811.16;;;10.53;42.37
20009;BME280;10165;42.662;23.260;2023-02-20T09:22:35;94801.78;;;10.27;42.77
20009;BME280;10165;42.662;23.260;2023-02-20T09:25:03;94814.84;;;10.20;42.91
20009;BME280;10165;42.662;23.260;2023-02-20T09:27:30;94795.84;;;10.13;43.43
20009;BME280;10165;42.662;23.260;2023-02-20T09:29:57;94806.97;;;10.44;42.65
20009;BME280;10165;42.662;23.260;2023-02-20T09:32:23;94806.19;;;10.23;42.82
20009;BME280;10165;42.662;23.260;2023-02-20T09:34:50;94785.75;;;10.47;43.09
20009;BME280;10165;42.662;23.260;2023-02-20T09:37:17;94798.09;;;10.31;42.97
20009;BME280;10165;42.662;23.260;2023-02-20T09:39:44;94797.63;;;10.38;43.49
20009;BME280;10165;42.662;23.260;2023-02-20T09:42:29;94809.06;;;10.18;43.25
20009;BME280;10165;42.662;23.260;2023-02-20T09:45:19;94794.31;;;10.94;42.42
20009;BME280;10165;42.662;23.260;2023-02-20T09:50:46;94797.78;;;10.33;42.47
20009;BME280;10165;42.662;23.260;2023-02-20T09:53:31;94824.69;;;10.28;42.91
20009;BME280;10165;42.662;23.260;2023-02-20T09:56:02;94798.53;;;9.83;42.67
20009;BME280;10165;42.662;23.260;2023-02-20T09:58:43;94789.69;;;10.62;41.51
20009;BME280;10165;42.662;23.260;2023-02-20T10:01:20;94807.06;;;10.06;39.40
20009;BME280;10165;42.662;23.260;2023-02-20T10:04:01;94805.94;;;10.57;39.01
20009;BME280;10165;42.662;23.260;2023-02-20T10:06:31;94808.09;;;10.43;38.40
20009;BME280;10165;42.662;23.260;2023-02-20T10:08:58;94794.94;;;10.38;38.17
20009;BME280;10165;42.662;23.260;2023-02-20T10:14:38;94788.28;;;10.65;38.00
20009;BME280;10165;42.662;23.260;2023-02-20T10:19:52;94794.22;;;11.03;37.05
20009;BME280;10165;42.662;23.260;2023-02-20T10:22:23;94778.06;;;10.99;36.89
20009;BME280;10165;42.662;23.260;2023-02-20T10:30:32;94787.00;;;11.03;36.23
20009;BME280;10165;42.662;23.260;2023-02-20T10:35:54;94771.31;;;11.14;36.32
20009;BME280;10165;42.662;23.260;2023-02-20T10:38:25;94745.13;;;11.08;36.85
20009;BME280;10165;42.662;23.260;2023-02-20T10:41:06;94756.53;;;11.41;36.10
20009;BME280;10165;42.662;23.260;2023-02-20T10:44:01;94756.34;;;11.82;35.72
20009;BME280;10165;42.662;23.260;2023-02-20T10:46:36;94733.69;;;11.68;35.23
20009;BME280;10165;42.662;23.260;2023-02-20T10:52:15;94734.78;;;11.67;36.17
20009;BME280;10165;42.662;23.260;2023-02-20T10:57:59;94737.38;;;11.75;36.25
20009;BME280;10165;42.662;23.260;2023-02-20T11:00:43;94737.50;;;11.79;36.15
20009;BME280;10165;42.662;23.260;2023-02-20T11:03:15;94749.63;;;11.52;36.65
20009;BME280;10165;42.662;23.260;2023-02-20T11:05:47;94746.53;;;11.74;36.21
20009;BME280;10165;42.662;23.260;2023-02-20T11:08:16;94758.97;;;11.46;36.85
20009;BME280;10165;42.662;23.260;2023-02-20T11:10:47;94750.72;;;11.39;37.39
20009;BME280;10165;42.662;23.260;2023-02-20T11:13:17;94740.00;;;11.39;37.59
20009;BME280;10165;42.662;23.260;2023-02-20T11:15:47;94743.91;;;11.17;37.14
20009;BME280;10165;42.662;23.260;2023-02-20T11:18:22;94736.03;;;11.57;36.90
20009;BME280;10165;42.662;23.260;2023-02-20T11:20:53;94754.72;;;11.21;37.57
20009;BME280;10165;42.662;23.260;2023-02-20T11:23:35;94734.25;;;11.85;36.92
20009;BME280;10165;42.662;23.260;2023-02-20T11:26:25;94728.63;;;12.55;35.48
20009;BME280;10165;42.662;23.260;2023-02-20T11:29:01;94734.75;;;12.83;35.66
20009;BME280;10165;42.662;23.260;2023-02-20T11:31:30;94746.50;;;11.98;36.42
20009;BME280;10165;42.662;23.260;2023-02-20T11:33:57;94737.03;;;11.65;36.92
20009;BME280;10165;42.662;23.260;2023-02-20T11:36:26;94739.13;;;11.59;37.25
20009;BME280;10165;42.662;23.260;2023-02-20T11:38:59;94725.97;;;11.54;37.01
20009;BME280;10165;42.662;23.260;2023-02-20T11:41:35;94720.75;;;11.33;37.03
20009;BME280;10165;42.662;23.260;2023-02-20T11:46:32;94703.22;;;11.84;36.37
20009;BME280;10165;42.662;23.260;2023-02-20T11:51:46;94713.28;;;11.51;36.73
20009;BME280;10165;42.662;23.260;2023-02-20T11:54:19;94713.72;;;11.65;36.35
20009;BME280;10165;42.662;23.260;2023-02-20T11:57:09;94692.47;;;12.09;35.89
20009;BME280;10165;42.662;23.260;2023-02-20T11:59:45;94689.72;;;12.05;35.60
20009;BME280;10165;42.662;23.260;2023-02-20T12:04:43;94695.44;;;11.67;35.95
20009;BME280;10165;42.662;23.260;2023-02-20T12:09:50;94712.28;;;11.80;35.34
20009;BME280;10165;42.662;23.260;2023-02-20T12:12:18;94700.28;;;12.14;35.12
20009;BME280;10165;42.662;23.260;2023-02-20T12:14:49;94696.34;;;11.59;35.65
20009;BME280;10165;42.662;23.260;2023-02-20T12:17:45;94688.63;;;11.70;36.22
20009;BME280;10165;42.662;23.260;2023-02-20T12:20:18;94689.78;;;12.21;35.84
20009;BME280;10165;42.662;23.260;2023-02-20T12:23:19;94698.25;;;12.23;35.21
20009;BME280;10165;42.662;23.260;2023-02-20T12:50:54;94710.25;;;11.89;36.19
20009;BME280;10165;42.662;23.260;2023-02-20T12:59:45;94701.84;;;12.70;35.29
20009;BME280;10165;42.662;23.260;2023-02-20T13:02:21;94701.88;;;12.03;36.26
20009;BME280;10165;42.662;23.260;2023-02-20T13:05:10;94690.09;;;12.19;36.28
20009;BME280;10165;42.662;23.260;2023-02-20T13:07:54;94686.84;;;12.38;35.68
20009;BME280;10165;42.662;23.260;2023-02-20T13:10:29;94700.75;;;12.04;36.56
20009;BME280;10165;42.662;23.260;2023-02-20T13:12:58;94686.16;;;12.01;36.46
20009;BME280;10165;42.662;23.260;2023-02-20T13:15:57;94688.31;;;12.23;36.26
20009;BME280;10165;42.662;23.260;2023-02-20T13:18:39;94702.41;;;12.48;36.10
20009;BME280;10165;42.662;23.260;2023-02-20T13:21:15;94708.59;;;12.36;36.63
20009;BME280;10165;42.662;23.260;2023-02-20T13:23:43;94712.41;;;12.23;35.98
20009;BME280;10165;42.662;23.260;2023-02-20T13:29:09;94719.59;;;12.47;36.67
20009;BME280;10165;42.662;23.260;2023-02-20T13:47:27;94705.53;;;12.10;37.07
20009;BME280;10165;42.662;23.260;2023-02-20T13:50:00;94714.00;;;12.12;37.11
20009;BME280;10165;42.662;23.260;2023-02-20T13:52:41;94722.81;;;12.13;37.31
20009;BME280;10165;42.662;23.260;2023-02-20T14:03:23;94727.56;;;12.31;37.14
20009;BME280;10165;42.662;23.260;2023-02-20T14:06:08;94731.66;;;12.01;37.66
20009;BME280;10165;42.662;23.260;2023-02-20T14:08:45;94727.66;;;11.59;38.32
20009;BME280;10165;42.662;23.260;2023-02-20T14:11:25;94712.25;;;12.04;38.02
20009;BME280;10165;42.662;23.260;2023-02-20T14:13:53;94715.47;;;12.10;37.91
20009;BME280;10165;42.662;23.260;2023-02-20T14:16:29;94707.63;;;12.29;38.15
20009;BME280;10165;42.662;23.260;2023-02-20T14:19:02;94712.28;;;11.80;38.58
20009;BME280;10165;42.662;23.260;2023-02-20T14:21:29;94714.75;;;11.73;39.21
20009;BME280;10165;42.662;23.260;2023-02-20T14:24:10;94711.78;;;12.14;38.74
20009;BME280;10165;42.662;23.260;2023-02-20T14:26:39;94722.66;;;11.57;39.01
20009;BME280;10165;42.662;23.260;2023-02-20T14:31:50;94741.44;;;11.24;39.82
20009;BME280;10165;42.662;23.260;2023-02-20T14:34:29;94735.03;;;11.74;39.22
20009;BME280;10165;42.662;23.260;2023-02-20T14:37:15;94749.72;;;11.92;39.17
20009;BME280;10165;42.662;23.260;2023-02-20T14:42:24;94736.69;;;11.66;39.26
20009;BME280;10165;42.662;23.260;2023-02-20T14:44:59;94741.78;;;11.35;39.55
20009;BME280;10165;42.662;23.260;2023-02-20T14:47:27;94728.53;;;11.50;39.77
20009;BME280;10165;42.662;23.260;2023-02-20T14:50:16;94739.78;;;11.20;40.47
20009;BME280;10165;42.662;23.260;2023-02-20T14:52:43;94737.28;;;10.90;41.21
20009;BME280;10165;42.662;23.260;2023-02-20T14:55:15;94735.72;;;11.01;40.96
20009;BME280;10165;42.662;23.260;2023-02-20T14:57:41;94740.31;;;11.13;41.05
20009;BME280;10165;42.662;23.260;2023-02-20T15:02:47;94743.16;;;11.53;40.26
20009;BME280;10165;42.662;23.260;2023-02-20T15:05:25;94752.91;;;11.13;40.79
20009;BME280;10165;42.662;23.260;2023-02-20T15:07:59;94762.28;;;11.31;40.58
20009;BME280;10165;42.662;23.260;2023-02-20T15:10:32;94761.88;;;11.41;40.75
20009;BME280;10165;42.662;23.260;2023-02-20T15:13:11;94772.31;;;11.22;40.86
20009;BME280;10165;42.662;23.260;2023-02-20T15:15:42;94779.34;;;11.26;40.81